createdAt,value
2022-12-23T00:01:46.939Z,9.92
2022-12-23T00:04:13.484Z,9.91
2022-12-23T00:06:44.105Z,9.90
2022-12-23T00:09:10.531Z,9.91
2022-12-23T00:11:36.894Z,9.90
2022-12-23T00:14:22.211Z,9.88
2022-12-23T00:16:50.772Z,9.88
2022-12-23T00:19:21.386Z,9.85
2022-12-23T00:21:57.409Z,9.83
2022-12-23T00:24:23.893Z,9.84
2022-12-23T00:26:56.172Z,9.83
2022-12-23T00:29:22.590Z,9.83
2022-12-23T00:31:49.008Z,9.82
2022-12-23T00:34:19.227Z,9.80
2022-12-23T00:36:45.612Z,9.80
2022-12-23T00:39:31.670Z,9.79
2022-12-23T00:42:23.006Z,9.79
2022-12-23T00:44:52.216Z,9.75
2022-12-23T00:47:37.403Z,9.74
2022-12-23T00:50:18.982Z,9.73
2022-12-23T00:52:49.817Z,9.73
2022-12-23T00:55:19.605Z,9.71
2022-12-23T00:57:46.293Z,9.72
2022-12-23T01:00:14.503Z,9.69
2022-12-23T01:03:00.939Z,9.70
2022-12-23T01:05:36.521Z,9.69
2022-12-23T01:08:09.282Z,9.68
2022-12-23T01:10:40.944Z,9.68
2022-12-23T01:13:11.023Z,9.65
2022-12-23T01:15:39.749Z,9.65
2022-12-23T01:18:08.507Z,9.64
2022-12-23T01:23:19.507Z,9.60
2022-12-23T01:25:56.271Z,9.60
2022-12-23T01:28:36.210Z,9.60
2022-12-23T01:31:05.057Z,9.60
2022-12-23T01:33:33.159Z,9.61
2022-12-23T01:36:03.965Z,9.59
2022-12-23T01:38:56.204Z,9.60
2022-12-23T01:42:03.886Z,9.58
2022-12-23T01:45:05.928Z,9.59
2022-12-23T01:47:50.082Z,9.58
2022-12-23T01:50:34.384Z,9.56
2022-12-23T01:53:09.494Z,9.54
2022-12-23T01:55:50.813Z,9.52
2022-12-23T01:58:27.201Z,9.51
2022-12-23T02:01:16.734Z,9.52
2022-12-23T02:03:48.785Z,9.49
2022-12-23T02:06:43.785Z,9.50
2022-12-23T02:09:24.833Z,9.48
2022-12-23T02:12:01.394Z,9.43
2022-12-23T02:14:46.613Z,9.44
2022-12-23T02:17:46.914Z,9.43
2022-12-23T02:20:47.507Z,9.43
2022-12-23T02:23:47.184Z,9.41
2022-12-23T02:26:28.666Z,9.42
2022-12-23T02:29:32.125Z,9.40
2022-12-23T02:32:10.860Z,9.39
2022-12-23T02:34:49.213Z,9.38
2022-12-23T02:37:35.027Z,9.35
2022-12-23T02:40:20.259Z,9.33
2022-12-23T02:43:21.822Z,9.32
2022-12-23T02:46:35.800Z,9.29
2022-12-23T02:49:15.654Z,9.26
2022-12-23T02:51:52.600Z,9.25
2022-12-23T02:54:40.000Z,9.23
2022-12-23T02:57:09.991Z,9.18
2022-12-23T02:59:42.938Z,9.12
2022-12-23T03:02:09.443Z,9.10
2022-12-23T03:04:46.034Z,9.09
2022-12-23T03:07:26.067Z,9.07
2022-12-23T03:10:29.378Z,9.04
2022-12-23T03:13:16.459Z,9.00
2022-12-23T03:16:12.101Z,8.95
2022-12-23T03:19:19.801Z,8.91
2022-12-23T03:22:24.594Z,8.85
2022-12-23T03:25:11.437Z,8.82
2022-12-23T03:28:11.402Z,8.82
2022-12-23T03:30:44.909Z,8.83
2022-12-23T03:33:22.250Z,8.82
2022-12-23T03:36:04.288Z,8.84
2022-12-23T03:38:39.185Z,8.85
2022-12-23T03:41:22.608Z,8.83
2022-12-23T03:44:27.051Z,8.79
2022-12-23T03:47:30.016Z,8.76
2022-12-23T03:50:12.012Z,8.76
2022-12-23T03:52:43.603Z,8.77
2022-12-23T03:55:23.485Z,8.76
2022-12-23T03:58:01.843Z,8.77
2022-12-23T04:00:36.295Z,8.76
2022-12-23T04:06:00.317Z,8.76
2022-12-23T04:08:31.407Z,8.78
2022-12-23T04:10:59.602Z,8.75
2022-12-23T04:13:30.917Z,8.74
2022-12-23T04:16:01.496Z,8.73
2022-12-23T04:18:28.605Z,8.73
2022-12-23T04:20:55.219Z,8.73
2022-12-23T04:23:21.595Z,8.73
2022-12-23T04:28:30.686Z,8.75
2022-12-23T04:30:59.819Z,8.76
2022-12-23T04:33:26.327Z,8.77
2022-12-23T04:35:58.333Z,8.76
2022-12-23T04:38:24.813Z,8.76
2022-12-23T04:40:51.206Z,8.79
2022-12-23T04:43:19.931Z,8.79
2022-12-23T04:45:52.482Z,8.79
2022-12-23T04:51:07.590Z,8.80
2022-12-23T04:53:36.662Z,8.79
2022-12-23T04:56:07.783Z,8.77
2022-12-23T04:58:37.016Z,8.78
2022-12-23T05:01:09.428Z,8.78
2022-12-23T05:03:39.700Z,8.77
2022-12-23T05:06:09.276Z,8.79
2022-12-23T05:08:40.855Z,8.77
2022-12-23T05:11:07.494Z,8.79
2022-12-23T05:13:38.471Z,8.79
2022-12-23T05:16:07.823Z,8.79
2022-12-23T05:18:41.634Z,8.76
2022-12-23T05:21:11.233Z,8.76
2022-12-23T05:23:42.848Z,8.77
2022-12-23T05:26:12.522Z,8.77
2022-12-23T05:28:38.993Z,8.77
2022-12-23T05:31:08.492Z,8.76
2022-12-23T05:33:38.588Z,8.75
2022-12-23T05:36:12.267Z,8.76
2022-12-23T05:38:38.722Z,8.76
2022-12-23T05:41:05.861Z,8.75
2022-12-23T05:43:35.451Z,8.73
2022-12-23T05:46:05.095Z,8.73
2022-12-23T05:48:38.938Z,8.72
2022-12-23T05:51:08.243Z,8.70
2022-12-23T05:53:35.322Z,8.68
2022-12-23T05:56:08.977Z,8.68
2022-12-23T05:58:35.385Z,8.67
2022-12-23T06:01:06.794Z,8.66
2022-12-23T06:03:33.505Z,8.67
2022-12-23T06:05:59.953Z,8.63
2022-12-23T06:08:34.766Z,8.63
2022-12-23T06:11:11.902Z,8.63
2022-12-23T06:13:41.049Z,8.64
2022-12-23T06:16:12.041Z,8.63
2022-12-23T06:18:41.331Z,8.63
2022-12-23T06:21:07.666Z,8.63
2022-12-23T06:23:40.074Z,8.64
2022-12-23T06:26:06.608Z,8.62
2022-12-23T06:28:33.009Z,8.62
2022-12-23T06:31:02.570Z,8.62
2022-12-23T06:33:31.965Z,8.62
2022-12-23T06:36:06.170Z,8.61
2022-12-23T06:38:32.609Z,8.61
2022-12-23T06:40:59.094Z,8.61
2022-12-23T06:43:29.992Z,8.59
2022-12-23T06:45:59.179Z,8.58
2022-12-23T06:48:25.559Z,8.57
2022-12-23T06:50:55.309Z,8.57
2022-12-23T06:53:21.785Z,8.59
2022-12-23T06:55:48.151Z,8.57
2022-12-23T06:58:27.579Z,8.56
2022-12-23T07:00:53.979Z,8.56
2022-12-23T07:03:23.352Z,8.59
2022-12-23T07:05:54.152Z,8.58
2022-12-23T07:08:25.089Z,8.59
2022-12-23T07:10:57.869Z,8.61
2022-12-23T07:13:27.320Z,8.60
2022-12-23T07:15:56.488Z,8.60
2022-12-23T07:18:26.501Z,8.61
2022-12-23T07:20:52.930Z,8.60
2022-12-23T07:23:19.316Z,8.59
2022-12-23T07:25:45.657Z,8.58
2022-12-23T07:28:15.482Z,8.59
2022-12-23T07:30:44.613Z,8.58
2022-12-23T07:33:10.991Z,8.58
2022-12-23T07:35:46.514Z,8.60
2022-12-23T07:38:12.951Z,8.59
2022-12-23T07:40:39.348Z,8.58
2022-12-23T07:43:06.195Z,8.59
2022-12-23T07:45:36.715Z,8.58
2022-12-23T07:50:49.238Z,8.57
2022-12-23T07:53:15.812Z,8.58
2022-12-23T07:55:42.187Z,8.58
2022-12-23T07:58:17.994Z,8.57
2022-12-23T08:00:44.343Z,8.57
2022-12-23T08:03:16.769Z,8.60
2022-12-23T08:05:43.209Z,8.59
2022-12-23T08:08:09.645Z,8.57
2022-12-23T08:13:22.412Z,8.61
2022-12-23T08:15:48.760Z,8.60
2022-12-23T08:18:15.322Z,8.60
2022-12-23T08:20:47.262Z,8.60
2022-12-23T08:23:13.844Z,8.61
2022-12-23T08:25:40.185Z,8.60
2022-12-23T08:28:10.730Z,8.61
2022-12-23T08:30:39.928Z,8.59
2022-12-23T08:33:12.617Z,8.61
2022-12-23T08:35:41.864Z,8.61
2022-12-23T08:38:16.083Z,8.61
2022-12-23T08:40:45.263Z,8.61
2022-12-23T08:43:14.186Z,8.62
2022-12-23T08:45:46.756Z,8.63
2022-12-23T08:48:17.643Z,8.65
2022-12-23T08:50:50.180Z,8.65
2022-12-23T08:53:16.598Z,8.66
2022-12-23T08:55:50.863Z,8.67
2022-12-23T08:58:17.268Z,8.68
2022-12-23T09:00:48.701Z,8.69
2022-12-23T09:03:18.056Z,8.72
2022-12-23T09:05:44.494Z,8.72
2022-12-23T09:08:14.316Z,8.71
2022-12-23T09:10:44.684Z,8.72
2022-12-23T09:13:22.300Z,8.73
2022-12-23T09:15:58.953Z,8.76
2022-12-23T09:18:25.394Z,8.73
2022-12-23T09:21:01.047Z,8.76
2022-12-23T09:23:30.771Z,8.76
2022-12-23T09:25:58.305Z,8.76
2022-12-23T09:28:25.598Z,8.76
2022-12-23T09:30:52.638Z,8.80
2022-12-23T09:33:19.761Z,8.77
2022-12-23T09:35:54.272Z,8.76
2022-12-23T09:38:20.650Z,8.77
2022-12-23T09:40:51.726Z,8.79
2022-12-23T09:43:42.837Z,8.77
2022-12-23T09:46:30.924Z,8.79
2022-12-23T09:52:00.084Z,8.80
2022-12-23T09:54:29.772Z,8.82
2022-12-23T09:57:18.897Z,8.82
2022-12-23T10:00:15.408Z,8.81
2022-12-23T10:03:16.250Z,8.82
2022-12-23T10:06:15.186Z,8.83
2022-12-23T10:09:04.391Z,8.84
2022-12-23T10:11:56.712Z,8.87
2022-12-23T10:17:41.675Z,8.87
2022-12-23T10:20:21.454Z,8.87
2022-12-23T10:22:47.995Z,8.89
2022-12-23T10:25:43.235Z,8.88
2022-12-23T10:28:11.141Z,8.91
2022-12-23T10:31:10.636Z,8.92
2022-12-23T10:33:48.270Z,8.93
2022-12-23T10:36:52.167Z,8.95
2022-12-23T10:39:36.896Z,8.95
2022-12-23T10:42:39.288Z,8.95
2022-12-23T10:45:43.876Z,8.95
2022-12-23T10:48:37.354Z,8.95
2022-12-23T10:51:13.180Z,8.97
2022-12-23T10:54:21.228Z,8.98
2022-12-23T10:56:47.807Z,8.99
2022-12-23T10:59:27.566Z,9.00
2022-12-23T11:02:12.309Z,9.00
2022-12-23T11:04:47.484Z,9.01
2022-12-23T11:10:35.130Z,9.06
2022-12-23T11:13:05.970Z,9.08
2022-12-23T11:15:45.906Z,9.09
2022-12-23T11:18:21.059Z,9.09
2022-12-23T11:21:15.940Z,9.10
2022-12-23T11:23:42.343Z,9.11
2022-12-23T11:26:14.787Z,9.10
2022-12-23T11:28:56.045Z,9.12
2022-12-23T11:31:46.352Z,9.14
2022-12-23T11:34:20.160Z,9.15
2022-12-23T11:37:09.316Z,9.15
2022-12-23T11:39:49.544Z,9.13
2022-12-23T11:42:30.258Z,9.15
2022-12-23T11:47:46.257Z,9.18
2022-12-23T11:50:38.706Z,9.19
2022-12-23T11:53:21.692Z,9.19
2022-12-23T11:56:03.517Z,9.21
2022-12-23T11:58:41.787Z,9.20
2022-12-23T12:01:34.227Z,9.21
2022-12-23T12:04:10.496Z,9.22
2022-12-23T12:06:47.210Z,9.21
2022-12-23T12:09:18.996Z,9.21
2022-12-23T12:12:06.037Z,9.20
2022-12-23T12:14:34.354Z,9.21
2022-12-23T12:17:23.994Z,9.20
2022-12-23T12:20:11.578Z,9.19
2022-12-23T12:23:16.288Z,9.17
2022-12-23T12:25:58.083Z,9.19
2022-12-23T12:29:06.458Z,9.21
2022-12-23T12:31:43.765Z,9.22
2022-12-23T12:34:54.274Z,9.22
2022-12-23T12:38:22.024Z,9.20
2022-12-23T12:43:40.122Z,9.19
2022-12-23T12:46:06.556Z,9.19
2022-12-23T12:49:31.276Z,9.18
2022-12-23T12:52:30.374Z,9.17
2022-12-23T12:55:06.180Z,9.17
2022-12-23T12:57:35.424Z,9.18
2022-12-23T13:00:08.638Z,9.17
2022-12-23T13:03:16.342Z,9.18
2022-12-23T13:06:20.129Z,9.17
2022-12-23T13:09:13.125Z,9.16
2022-12-23T13:11:54.774Z,9.16
2022-12-23T13:15:04.330Z,9.19
2022-12-23T13:17:45.296Z,9.20
2022-12-23T13:23:43.528Z,9.20
2022-12-23T13:26:52.684Z,9.17
2022-12-23T13:29:57.810Z,9.18
2022-12-23T13:32:33.461Z,9.17
2022-12-23T13:35:37.053Z,9.16
2022-12-23T13:38:21.852Z,9.13
2022-12-23T13:41:11.713Z,9.13
2022-12-23T13:44:00.889Z,9.13
2022-12-23T13:46:44.182Z,9.13
2022-12-23T13:49:57.276Z,9.11
2022-12-23T13:53:08.500Z,9.11
2022-12-23T13:56:01.913Z,9.08
2022-12-23T13:58:31.259Z,9.09
2022-12-23T14:01:24.330Z,9.09
2022-12-23T14:03:53.817Z,9.10
2022-12-23T14:06:26.566Z,9.11
2022-12-23T14:08:55.922Z,9.10
2022-12-23T14:11:29.780Z,9.08
2022-12-23T14:14:02.405Z,9.09
2022-12-23T14:16:52.241Z,9.09
2022-12-23T14:20:01.295Z,9.15
2022-12-23T14:22:52.008Z,9.19
2022-12-23T14:25:59.225Z,9.23
2022-12-23T14:28:40.527Z,9.26
2022-12-23T14:31:30.381Z,9.22
2022-12-23T14:34:30.611Z,9.20
2022-12-23T14:37:29.851Z,9.17
2022-12-23T14:40:00.926Z,9.16
2022-12-23T14:42:49.082Z,9.13
2022-12-23T14:46:07.504Z,9.12
2022-12-23T14:49:16.203Z,9.12
2022-12-23T14:51:48.285Z,9.10
2022-12-23T14:54:50.162Z,9.12
2022-12-23T14:57:42.583Z,9.15
2022-12-23T15:00:17.498Z,9.17
2022-12-23T15:02:46.804Z,9.14
2022-12-23T15:05:13.352Z,9.12
2022-12-23T15:07:48.123Z,9.11
2022-12-23T15:10:28.353Z,9.10
2022-12-23T15:13:15.024Z,9.07
2022-12-23T15:16:16.653Z,9.04
2022-12-23T15:18:56.935Z,9.06
2022-12-23T15:21:36.282Z,9.02
2022-12-23T15:24:02.773Z,8.99
2022-12-23T15:26:37.967Z,8.97
2022-12-23T15:29:07.603Z,8.97
2022-12-23T15:31:46.139Z,8.96
2022-12-23T15:34:24.443Z,8.96
2022-12-23T15:36:54.470Z,8.94
2022-12-23T15:42:31.248Z,8.92
2022-12-23T15:45:01.161Z,8.90
2022-12-23T15:47:32.308Z,8.91
2022-12-23T15:50:05.565Z,8.92
2022-12-23T15:52:35.138Z,8.92
2022-12-23T15:55:31.942Z,8.91
2022-12-23T15:57:59.814Z,8.91
2022-12-23T16:00:34.348Z,8.91
2022-12-23T16:03:02.887Z,8.93
2022-12-23T16:05:36.723Z,8.92
2022-12-23T16:08:30.230Z,8.95
2022-12-23T16:11:19.079Z,8.95
2022-12-23T16:14:01.353Z,8.97
2022-12-23T16:16:50.490Z,8.97
2022-12-23T16:19:44.612Z,8.97
2022-12-23T16:22:20.204Z,8.96
2022-12-23T16:25:08.615Z,8.96
2022-12-23T16:27:38.896Z,8.96
2022-12-23T16:30:21.249Z,8.97
2022-12-23T16:32:51.241Z,8.96
2022-12-23T16:35:40.640Z,8.95
2022-12-23T16:38:24.702Z,8.97
2022-12-23T16:40:57.204Z,8.97
2022-12-23T16:43:24.852Z,8.96
2022-12-23T16:45:59.271Z,8.95
2022-12-23T16:48:32.344Z,8.97
2022-12-23T16:51:03.287Z,8.97
2022-12-23T16:53:29.653Z,8.97
2022-12-23T16:56:00.580Z,8.97
2022-12-23T16:58:27.726Z,8.97
2022-12-23T17:00:54.404Z,8.98
2022-12-23T17:03:21.092Z,8.98
2022-12-23T17:05:57.002Z,8.98
2022-12-23T17:08:23.401Z,8.98
2022-12-23T17:10:54.435Z,8.99
2022-12-23T17:13:21.837Z,9.00
2022-12-23T17:15:48.192Z,8.98
2022-12-23T17:18:18.083Z,9.01
2022-12-23T17:20:49.046Z,9.00
2022-12-23T17:23:35.449Z,9.00
2022-12-23T17:26:04.454Z,8.97
2022-12-23T17:28:34.538Z,8.96
2022-12-23T17:31:19.352Z,8.94
2022-12-23T17:33:52.041Z,8.98
2022-12-23T17:36:18.828Z,8.98
2022-12-23T17:38:52.213Z,8.99
2022-12-23T17:41:36.400Z,9.00
2022-12-23T17:44:02.831Z,9.04
2022-12-23T17:46:31.222Z,9.10
2022-12-23T17:49:03.106Z,9.17
2022-12-23T17:51:29.473Z,9.21
2022-12-23T17:53:59.692Z,9.28
2022-12-23T17:56:29.112Z,9.34
2022-12-23T17:58:58.038Z,9.40
2022-12-23T18:01:32.074Z,9.47
2022-12-23T18:04:02.527Z,9.52
2022-12-23T18:06:32.607Z,9.58
2022-12-23T18:08:59.059Z,9.66
2022-12-23T18:11:37.961Z,9.75
2022-12-23T18:14:19.913Z,9.83
2022-12-23T18:19:29.871Z,9.96
2022-12-23T18:21:56.327Z,10.00
2022-12-23T18:24:22.988Z,10.10
2022-12-23T18:26:49.415Z,10.17
2022-12-23T18:29:19.584Z,10.20
2022-12-23T18:31:52.180Z,10.25
2022-12-23T18:34:22.954Z,10.28
2022-12-23T18:36:51.571Z,10.33
2022-12-23T18:39:21.432Z,10.33
2022-12-23T18:41:47.943Z,10.39
2022-12-23T18:47:05.346Z,10.45
2022-12-23T18:49:38.086Z,10.49
2022-12-23T18:52:08.882Z,10.53
2022-12-23T18:54:35.218Z,10.49
2022-12-23T18:57:02.564Z,10.51
2022-12-23T18:59:31.469Z,10.53
2022-12-23T19:01:58.791Z,10.56
2022-12-23T19:04:26.912Z,10.60
2022-12-23T19:06:55.361Z,10.59
2022-12-23T19:09:23.913Z,10.58
2022-12-23T19:11:52.681Z,10.55
2022-12-23T19:14:20.922Z,10.58
2022-12-23T19:16:52.057Z,10.55
2022-12-23T19:19:20.415Z,10.54
2022-12-23T19:21:50.416Z,10.58
2022-12-23T19:24:19.671Z,10.58
2022-12-23T19:26:57.969Z,10.58
2022-12-23T19:29:24.451Z,10.57
2022-12-23T19:31:57.138Z,10.59
2022-12-23T19:34:23.721Z,10.57
2022-12-23T19:36:50.190Z,10.55
2022-12-23T19:39:17.476Z,10.58
2022-12-23T19:41:47.381Z,10.58
2022-12-23T19:44:14.453Z,10.59
2022-12-23T19:46:43.754Z,10.62
2022-12-23T19:49:19.618Z,10.63
2022-12-23T19:51:47.842Z,10.62
2022-12-23T19:54:18.425Z,10.64
2022-12-23T19:56:56.804Z,10.66
2022-12-23T19:59:23.474Z,10.69
2022-12-23T20:04:34.725Z,10.70
2022-12-23T20:07:04.468Z,10.72
2022-12-23T20:09:37.312Z,10.72
2022-12-23T20:12:06.746Z,10.72
2022-12-23T20:14:35.718Z,10.72
2022-12-23T20:17:07.859Z,10.72
2022-12-23T20:19:34.618Z,10.71
2022-12-23T20:22:03.750Z,10.72
2022-12-23T20:24:34.581Z,10.74
2022-12-23T20:27:11.461Z,10.72
2022-12-23T20:29:39.030Z,10.71
2022-12-23T20:32:24.960Z,10.72
2022-12-23T20:34:59.092Z,10.77
2022-12-23T20:37:25.640Z,10.77
2022-12-23T20:40:16.858Z,10.72
2022-12-23T20:42:43.521Z,10.76
2022-12-23T20:45:10.215Z,10.77
2022-12-23T20:47:40.358Z,10.79
2022-12-23T20:50:07.287Z,10.80
2022-12-23T20:52:33.687Z,10.81
2022-12-23T20:55:10.298Z,10.80
2022-12-23T20:57:36.857Z,10.79
2022-12-23T21:00:07.890Z,10.80
2022-12-23T21:02:34.345Z,10.80
2022-12-23T21:05:00.843Z,10.81
2022-12-23T21:07:28.739Z,10.82
2022-12-23T21:09:58.521Z,10.82
2022-12-23T21:12:24.905Z,10.82
2022-12-23T21:14:52.429Z,10.82
2022-12-23T21:17:21.173Z,10.81
2022-12-23T21:19:47.590Z,10.81
2022-12-23T21:25:10.942Z,10.80
2022-12-23T21:27:44.466Z,10.82
2022-12-23T21:30:11.357Z,10.81
2022-12-23T21:32:37.837Z,10.84
2022-12-23T21:35:08.083Z,10.83
2022-12-23T21:37:34.441Z,10.82
2022-12-23T21:40:00.949Z,10.81
2022-12-23T21:42:30.362Z,10.82
2022-12-23T21:44:59.779Z,10.84
2022-12-23T21:47:33.848Z,10.80
2022-12-23T21:50:03.286Z,10.78
2022-12-23T21:52:32.854Z,10.78
2022-12-23T21:55:07.876Z,10.77
2022-12-23T21:57:41.304Z,10.79
2022-12-23T22:00:08.577Z,10.76
2022-12-23T22:02:35.344Z,10.74
2022-12-23T22:05:05.120Z,10.76
2022-12-23T22:07:31.468Z,10.76
2022-12-23T22:09:57.878Z,10.73
2022-12-23T22:12:29.964Z,10.71
2022-12-23T22:14:56.370Z,10.66
2022-12-23T22:17:22.796Z,10.60
2022-12-23T22:19:59.650Z,10.52
2022-12-23T22:22:26.083Z,10.47
2022-12-23T22:25:05.783Z,10.45
2022-12-23T22:27:36.516Z,10.39
2022-12-23T22:30:06.705Z,10.36
2022-12-23T22:32:36.541Z,10.37
2022-12-23T22:35:11.913Z,10.33
2022-12-23T22:37:44.185Z,10.34
2022-12-23T22:40:13.784Z,10.36
2022-12-23T22:42:42.548Z,10.34
2022-12-23T22:45:13.316Z,10.32
2022-12-23T22:47:39.935Z,10.33
2022-12-23T22:50:13.140Z,10.33
2022-12-23T22:52:39.542Z,10.31
2022-12-23T22:55:06.248Z,10.29
2022-12-23T22:57:45.830Z,10.28
2022-12-23T23:00:18.905Z,10.28
2022-12-23T23:02:45.464Z,10.32
2022-12-23T23:05:13.274Z,10.29
2022-12-23T23:07:51.996Z,10.31
2022-12-23T23:10:20.979Z,10.31
2022-12-23T23:12:51.639Z,10.32
2022-12-23T23:15:18.840Z,10.34
2022-12-23T23:17:49.554Z,10.35
2022-12-23T23:20:16.020Z,10.33
2022-12-23T23:22:42.505Z,10.32
2022-12-23T23:25:17.513Z,10.33
2022-12-23T23:27:43.920Z,10.35
2022-12-23T23:30:23.082Z,10.33
2022-12-23T23:32:49.550Z,10.35
2022-12-23T23:35:24.935Z,10.37
2022-12-23T23:37:51.413Z,10.41
2022-12-23T23:40:20.933Z,10.41
2022-12-23T23:42:50.419Z,10.41
2022-12-23T23:45:16.842Z,10.39
2022-12-23T23:47:46.658Z,10.35
2022-12-23T23:50:15.982Z,10.38
2022-12-23T23:52:49.740Z,10.41
2022-12-23T23:55:16.249Z,10.36
2022-12-23T23:57:42.633Z,10.36
